sensor_id;sensor_type;location;lat;lon;timestamp;pressure;altitude;pressure_sealevel;temperature;humidity
21817;BME280;13247;47.504;7.382;2023-04-09T00:02:08;97834.25;;;9.76;100.00
21817;BME280;13247;47.504;7.382;2023-04-09T00:04:52;97837.56;;;9.85;100.00
21817;BME280;13247;47.504;7.382;2023-04-09T00:07:37;97843.47;;;9.50;100.00
21817;BME280;13247;47.504;7.382;2023-04-09T00:10:21;97846.97;;;9.51;100.00
21817;BME280;13247;47.504;7.382;2023-04-09T00:13:06;97836.84;;;9.77;100.00
21817;BME280;13247;47.504;7.382;2023-04-09T00:15:51;97843.31;;;9.60;100.00
21817;BME280;13247;47.504;7.382;2023-04-09T00:18:35;97838.34;;;9.46;100.00
21817;BME280;13247;47.504;7.382;2023-04-09T00:21:20;97842.91;;;9.33;100.00
21817;BME280;13247;47.504;7.382;2023-04-09T00:24:05;97831.41;;;9.42;100.00
21817;BME280;13247;47.504;7.382;2023-04-09T00:26:50;97829.97;;;9.26;100.00
21817;BME280;13247;47.504;7.382;2023-04-09T00:29:35;97833.19;;;9.40;100.00
21817;BME280;13247;47.504;7.382;2023-04-09T00:32:20;97831.50;;;9.39;100.00
21817;BME280;13247;47.504;7.382;2023-04-09T00:35:05;97830.38;;;9.52;100.00
21817;BME280;13247;47.504;7.382;2023-04-09T00:37:50;97821.66;;;9.52;100.00
21817;BME280;13247;47.504;7.382;2023-04-09T00:40:34;97818.19;;;9.49;100.00
21817;BME280;13247;47.504;7.382;2023-04-09T00:43:19;97824.38;;;9.45;100.00
21817;BME280;13247;47.504;7.382;2023-04-09T00:46:05;97828.09;;;9.34;100.00
21817;BME280;13247;47.504;7.382;2023-04-09T00:48:49;97824.78;;;9.23;100.00
21817;BME280;13247;47.504;7.382;2023-04-09T00:51:34;97823.03;;;9.25;100.00
21817;BME280;13247;47.504;7.382;2023-04-09T00:54:20;97818.00;;;9.13;100.00
21817;BME280;13247;47.504;7.382;2023-04-09T00:57:05;97825.56;;;8.81;100.00
21817;BME280;13247;47.504;7.382;2023-04-09T00:59:50;97826.34;;;8.86;100.00
21817;BME280;13247;47.504;7.382;2023-04-09T01:02:35;97823.47;;;9.01;100.00
21817;BME280;13247;47.504;7.382;2023-04-09T01:05:20;97830.81;;;8.81;100.00
21817;BME280;13247;47.504;7.382;2023-04-09T01:11:35;97836.41;;;8.56;100.00
21817;BME280;13247;47.504;7.382;2023-04-09T01:14:31;97832.56;;;8.21;100.00
21817;BME280;13247;47.504;7.382;2023-04-09T01:17:30;97830.00;;;8.16;100.00
21817;BME280;13247;47.504;7.382;2023-04-09T01:23:44;97834.13;;;8.35;100.00
21817;BME280;13247;47.504;7.382;2023-04-09T01:26:40;97832.44;;;8.31;100.00
21817;BME280;13247;47.504;7.382;2023-04-09T01:29:32;97830.75;;;8.26;100.00
21817;BME280;13247;47.504;7.382;2023-04-09T01:32:19;97828.31;;;8.12;100.00
21817;BME280;13247;47.504;7.382;2023-04-09T01:35:06;97829.91;;;8.25;100.00
21817;BME280;13247;47.504;7.382;2023-04-09T01:37:52;97836.19;;;8.09;100.00
21817;BME280;13247;47.504;7.382;2023-04-09T01:40:38;97830.91;;;8.14;100.00
21817;BME280;13247;47.504;7.382;2023-04-09T01:43:24;97821.50;;;8.02;100.00
21817;BME280;13247;47.504;7.382;2023-04-09T01:46:10;97822.56;;;7.86;100.00
21817;BME280;13247;47.504;7.382;2023-04-09T01:48:55;97824.41;;;7.81;100.00
21817;BME280;13247;47.504;7.382;2023-04-09T01:51:40;97826.97;;;7.82;100.00
21817;BME280;13247;47.504;7.382;2023-04-09T01:54:25;97821.81;;;7.78;100.00
21817;BME280;13247;47.504;7.382;2023-04-09T01:57:09;97826.16;;;7.79;100.00
21817;BME280;13247;47.504;7.382;2023-04-09T01:59:54;97826.22;;;7.74;100.00
21817;BME280;13247;47.504;7.382;2023-04-09T02:02:54;97815.94;;;7.61;100.00
21817;BME280;13247;47.504;7.382;2023-04-09T02:05:52;97820.22;;;7.65;100.00
21817;BME280;13247;47.504;7.382;2023-04-09T02:08:39;97817.63;;;7.66;100.00
21817;BME280;13247;47.504;7.382;2023-04-09T02:11:29;97809.84;;;7.62;100.00
21817;BME280;13247;47.504;7.382;2023-04-09T02:14:18;97812.56;;;7.53;100.00
21817;BME280;13247;47.504;7.382;2023-04-09T02:17:04;97810.13;;;7.38;100.00
21817;BME280;13247;47.504;7.382;2023-04-09T02:19:49;97809.53;;;7.13;100.00
21817;BME280;13247;47.504;7.382;2023-04-09T02:22:34;97811.41;;;7.00;100.00
21817;BME280;13247;47.504;7.382;2023-04-09T02:25:18;97807.94;;;6.95;100.00
21817;BME280;13247;47.504;7.382;2023-04-09T02:28:04;97812.09;;;7.14;100.00
21817;BME280;13247;47.504;7.382;2023-04-09T02:30:48;97808.84;;;6.94;100.00
21817;BME280;13247;47.504;7.382;2023-04-09T02:33:33;97807.03;;;7.02;100.00
21817;BME280;13247;47.504;7.382;2023-04-09T02:36:18;97812.50;;;6.72;100.00
21817;BME280;13247;47.504;7.382;2023-04-09T02:39:03;97814.25;;;6.70;100.00
21817;BME280;13247;47.504;7.382;2023-04-09T02:41:47;97818.59;;;6.73;100.00
21817;BME280;13247;47.504;7.382;2023-04-09T02:44:32;97811.63;;;6.75;100.00
21817;BME280;13247;47.504;7.382;2023-04-09T02:47:16;97814.25;;;6.73;100.00
21817;BME280;13247;47.504;7.382;2023-04-09T02:50:01;97815.16;;;6.69;100.00
21817;BME280;13247;47.504;7.382;2023-04-09T02:52:46;97805.72;;;6.53;100.00
21817;BME280;13247;47.504;7.382;2023-04-09T02:55:31;97819.84;;;6.22;100.00
21817;BME280;13247;47.504;7.382;2023-04-09T02:58:16;97822.72;;;5.66;100.00
21817;BME280;13247;47.504;7.382;2023-04-09T03:01:00;97823.72;;;5.29;100.00
21817;BME280;13247;47.504;7.382;2023-04-09T03:03:45;97828.81;;;5.61;100.00
21817;BME280;13247;47.504;7.382;2023-04-09T03:06:30;97826.94;;;5.97;100.00
21817;BME280;13247;47.504;7.382;2023-04-09T03:09:14;97821.66;;;6.11;100.00
21817;BME280;13247;47.504;7.382;2023-04-09T03:11:59;97814.78;;;6.01;100.00
21817;BME280;13247;47.504;7.382;2023-04-09T03:14:45;97813.97;;;5.79;100.00
21817;BME280;13247;47.504;7.382;2023-04-09T03:17:30;97815.78;;;5.62;100.00
21817;BME280;13247;47.504;7.382;2023-04-09T03:20:15;97814.09;;;5.58;100.00
21817;BME280;13247;47.504;7.382;2023-04-09T03:23:00;97821.06;;;5.45;100.00
21817;BME280;13247;47.504;7.382;2023-04-09T03:25:44;97808.91;;;5.60;100.00
21817;BME280;13247;47.504;7.382;2023-04-09T03:28:29;97808.06;;;5.45;100.00
21817;BME280;13247;47.504;7.382;2023-04-09T03:31:14;97821.06;;;5.53;100.00
21817;BME280;13247;47.504;7.382;2023-04-09T03:33:59;97813.31;;;5.26;100.00
21817;BME280;13247;47.504;7.382;2023-04-09T03:36:44;97814.94;;;5.65;100.00
21817;BME280;13247;47.504;7.382;2023-04-09T03:39:28;97811.44;;;5.69;100.00
21817;BME280;13247;47.504;7.382;2023-04-09T03:42:16;97812.38;;;5.57;100.00
21817;BME280;13247;47.504;7.382;2023-04-09T03:45:00;97814.13;;;5.43;100.00
21817;BME280;13247;47.504;7.382;2023-04-09T03:47:45;97817.59;;;5.43;100.00
21817;BME280;13247;47.504;7.382;2023-04-09T03:50:29;97822.09;;;4.96;100.00
21817;BME280;13247;47.504;7.382;2023-04-09T03:53:14;97822.06;;;5.02;100.00
21817;BME280;13247;47.504;7.382;2023-04-09T03:55:59;97829.00;;;5.06;100.00
21817;BME280;13247;47.504;7.382;2023-04-09T03:58:45;97820.31;;;5.07;100.00
21817;BME280;13247;47.504;7.382;2023-04-09T04:01:31;97817.66;;;5.28;100.00
21817;BME280;13247;47.504;7.382;2023-04-09T04:04:16;97823.75;;;5.20;100.00
21817;BME280;13247;47.504;7.382;2023-04-09T04:07:02;97822.03;;;5.11;100.00
21817;BME280;13247;47.504;7.382;2023-04-09T04:09:47;97825.50;;;5.16;100.00
21817;BME280;13247;47.504;7.382;2023-04-09T04:12:31;97829.88;;;4.96;100.00
21817;BME280;13247;47.504;7.382;2023-04-09T04:15:16;97827.28;;;4.78;100.00
21817;BME280;13247;47.504;7.382;2023-04-09T04:18:00;97827.25;;;4.90;100.00
21817;BME280;13247;47.504;7.382;2023-04-09T04:20:45;97828.19;;;4.56;100.00
21817;BME280;13247;47.504;7.382;2023-04-09T04:23:29;97836.81;;;4.49;100.00
21817;BME280;13247;47.504;7.382;2023-04-09T04:26:14;97826.44;;;4.59;100.00
21817;BME280;13247;47.504;7.382;2023-04-09T04:28:58;97822.97;;;4.62;100.00
21817;BME280;13247;47.504;7.382;2023-04-09T04:31:43;97821.25;;;4.59;100.00
21817;BME280;13247;47.504;7.382;2023-04-09T04:34:27;97834.22;;;4.28;100.00
21817;BME280;13247;47.504;7.382;2023-04-09T04:37:13;97829.00;;;4.07;100.00
21817;BME280;13247;47.504;7.382;2023-04-09T04:39:59;97826.38;;;3.96;100.00
21817;BME280;13247;47.504;7.382;2023-04-09T04:42:44;97832.47;;;4.30;100.00
21817;BME280;13247;47.504;7.382;2023-04-09T04:45:29;97830.75;;;4.47;100.00
21817;BME280;13247;47.504;7.382;2023-04-09T04:48:14;97831.63;;;4.26;100.00
21817;BME280;13247;47.504;7.382;2023-04-09T04:51:00;97829.00;;;4.25;100.00
21817;BME280;13247;47.504;7.382;2023-04-09T04:53:44;97832.47;;;4.27;100.00
21817;BME280;13247;47.504;7.382;2023-04-09T04:56:29;97833.34;;;4.35;100.00
21817;BME280;13247;47.504;7.382;2023-04-09T04:59:13;97822.97;;;4.44;100.00
21817;BME280;13247;47.504;7.382;2023-04-09T05:01:58;97828.16;;;4.20;100.00
21817;BME280;13247;47.504;7.382;2023-04-09T05:04:42;97826.41;;;4.22;100.00
21817;BME280;13247;47.504;7.382;2023-04-09T05:07:27;97822.09;;;4.30;100.00
21817;BME280;13247;47.504;7.382;2023-04-09T05:10:13;97825.56;;;4.36;100.00
21817;BME280;13247;47.504;7.382;2023-04-09T05:12:57;97822.09;;;4.40;100.00
21817;BME280;13247;47.504;7.382;2023-04-09T05:15:42;97814.34;;;4.54;100.00
21817;BME280;13247;47.504;7.382;2023-04-09T05:18:27;97815.19;;;4.68;100.00
21817;BME280;13247;47.504;7.382;2023-04-09T05:21:11;97809.94;;;4.86;100.00
21817;BME280;13247;47.504;7.382;2023-04-09T05:23:56;97811.66;;;5.08;100.00
21817;BME280;13247;47.504;7.382;2023-04-09T05:26:41;97811.63;;;5.19;100.00
21817;BME280;13247;47.504;7.382;2023-04-09T05:29:26;97816.75;;;5.41;100.00
21817;BME280;13247;47.504;7.382;2023-04-09T05:32:10;97806.28;;;5.56;100.00
21817;BME280;13247;47.504;7.382;2023-04-09T05:34:54;97811.41;;;5.81;100.00
21817;BME280;13247;47.504;7.382;2023-04-09T05:37:39;97818.31;;;5.91;100.00
21817;BME280;13247;47.504;7.382;2023-04-09T05:40:24;97818.31;;;5.88;100.00
21817;BME280;13247;47.504;7.382;2023-04-09T05:43:09;97821.72;;;6.00;100.00
21817;BME280;13247;47.504;7.382;2023-04-09T05:45:54;97818.19;;;6.12;100.00
21817;BME280;13247;47.504;7.382;2023-04-09T05:48:38;97818.97;;;6.24;100.00
21817;BME280;13247;47.504;7.382;2023-04-09T05:51:23;97820.69;;;6.25;100.00
21817;BME280;13247;47.504;7.382;2023-04-09T05:54:09;97825.00;;;6.29;100.00
21817;BME280;13247;47.504;7.382;2023-04-09T05:56:53;97826.75;;;6.26;100.00
21817;BME280;13247;47.504;7.382;2023-04-09T05:59:38;97828.41;;;6.36;100.00
21817;BME280;13247;47.504;7.382;2023-04-09T06:02:23;97829.13;;;6.58;100.00
21817;BME280;13247;47.504;7.382;2023-04-09T06:05:09;97836.09;;;6.59;100.00
21817;BME280;13247;47.504;7.382;2023-04-09T06:07:54;97838.72;;;6.54;100.00
21817;BME280;13247;47.504;7.382;2023-04-09T06:10:40;97841.25;;;6.65;100.00
21817;BME280;13247;47.504;7.382;2023-04-09T06:13:24;97836.50;;;7.07;100.00
21817;BME280;13247;47.504;7.382;2023-04-09T06:16:09;97843.13;;;7.42;100.00
21817;BME280;13247;47.504;7.382;2023-04-09T06:18:54;97835.44;;;7.27;100.00
21817;BME280;13247;47.504;7.382;2023-04-09T06:21:40;97835.28;;;7.42;100.00
21817;BME280;13247;47.504;7.382;2023-04-09T06:24:24;97837.28;;;7.19;100.00
21817;BME280;13247;47.504;7.382;2023-04-09T06:27:09;97846.78;;;7.23;100.00
21817;BME280;13247;47.504;7.382;2023-04-09T06:29:53;97841.63;;;7.20;100.00
21817;BME280;13247;47.504;7.382;2023-04-09T06:32:38;97850.19;;;7.29;100.00
21817;BME280;13247;47.504;7.382;2023-04-09T06:35:23;97847.47;;;7.43;100.00
21817;BME280;13247;47.504;7.382;2023-04-09T06:38:08;97857.81;;;7.52;100.00
21817;BME280;13247;47.504;7.382;2023-04-09T06:40:55;97850.75;;;7.58;100.00
21817;BME280;13247;47.504;7.382;2023-04-09T06:43:41;97860.34;;;7.56;100.00
21817;BME280;13247;47.504;7.382;2023-04-09T06:46:26;97860.22;;;7.67;100.00
21817;BME280;13247;47.504;7.382;2023-04-09T06:49:10;97860.03;;;7.82;100.00
21817;BME280;13247;47.504;7.382;2023-04-09T06:51:55;97864.31;;;7.89;100.00
21817;BME280;13247;47.504;7.382;2023-04-09T06:54:39;97875.56;;;7.94;100.00
21817;BME280;13247;47.504;7.382;2023-04-09T06:57:25;97878.06;;;8.03;100.00
21817;BME280;13247;47.504;7.382;2023-04-09T07:00:10;97878.13;;;7.97;100.00
21817;BME280;13247;47.504;7.382;2023-04-09T07:02:55;97877.41;;;7.86;100.00
21817;BME280;13247;47.504;7.382;2023-04-09T07:05:40;97881.66;;;7.96;100.00
21817;BME280;13247;47.504;7.382;2023-04-09T07:08:25;97880.63;;;8.05;100.00
21817;BME280;13247;47.504;7.382;2023-04-09T07:11:10;97881.81;;;7.79;100.00
21817;BME280;13247;47.504;7.382;2023-04-09T07:13:55;97874.72;;;7.90;100.00
21817;BME280;13247;47.504;7.382;2023-04-09T07:16:40;97881.38;;;8.16;100.00
21817;BME280;13247;47.504;7.382;2023-04-09T07:19:24;97878.47;;;8.40;100.00
21817;BME280;13247;47.504;7.382;2023-04-09T07:22:09;97877.59;;;8.39;100.00
21817;BME280;13247;47.504;7.382;2023-04-09T07:24:54;97878.22;;;8.56;100.00
21817;BME280;13247;47.504;7.382;2023-04-09T07:27:39;97875.75;;;8.49;100.00
21817;BME280;13247;47.504;7.382;2023-04-09T07:30:23;97874.88;;;8.48;100.00
21817;BME280;13247;47.504;7.382;2023-04-09T07:33:09;97868.72;;;8.52;100.00
21817;BME280;13247;47.504;7.382;2023-04-09T07:35:54;97871.06;;;8.69;100.00
21817;BME280;13247;47.504;7.382;2023-04-09T07:38:39;97868.31;;;8.77;100.00
21817;BME280;13247;47.504;7.382;2023-04-09T07:41:24;97873.53;;;8.77;100.00
21817;BME280;13247;47.504;7.382;2023-04-09T07:44:09;97864.91;;;8.73;100.00
21817;BME280;13247;47.504;7.382;2023-04-09T07:46:53;97867.25;;;8.90;100.00
21817;BME280;13247;47.504;7.382;2023-04-09T07:49:38;97868.97;;;8.91;100.00
21817;BME280;13247;47.504;7.382;2023-04-09T07:52:23;97868.91;;;8.95;100.00
21817;BME280;13247;47.504;7.382;2023-04-09T07:55:08;97865.09;;;9.13;100.00
21817;BME280;13247;47.504;7.382;2023-04-09T07:57:53;97875.88;;;8.95;100.00
21817;BME280;13247;47.504;7.382;2023-04-09T08:00:37;97867.91;;;9.04;100.00
21817;BME280;13247;47.504;7.382;2023-04-09T08:03:22;97869.53;;;9.09;100.00
21817;BME280;13247;47.504;7.382;2023-04-09T08:06:07;97867.53;;;9.23;100.00
21817;BME280;13247;47.504;7.382;2023-04-09T08:08:52;97867.31;;;9.37;100.00
21817;BME280;13247;47.504;7.382;2023-04-09T08:11:36;97864.41;;;9.52;100.00
21817;BME280;13247;47.504;7.382;2023-04-09T08:14:21;97861.00;;;9.47;100.00
21817;BME280;13247;47.504;7.382;2023-04-09T08:17:05;97869.84;;;9.40;100.00
21817;BME280;13247;47.504;7.382;2023-04-09T08:19:50;97866.88;;;9.60;100.00
21817;BME280;13247;47.504;7.382;2023-04-09T08:22:34;97867.56;;;9.68;100.00
21817;BME280;13247;47.504;7.382;2023-04-09T08:25:20;97858.31;;;9.52;100.00
21817;BME280;13247;47.504;7.382;2023-04-09T08:28:05;97871.34;;;9.97;100.00
21817;BME280;13247;47.504;7.382;2023-04-09T08:30:50;97864.91;;;10.15;100.00
21817;BME280;13247;47.504;7.382;2023-04-09T08:33:34;97866.19;;;9.93;100.00
21817;BME280;13247;47.504;7.382;2023-04-09T08:36:20;97862.00;;;9.84;100.00
21817;BME280;13247;47.504;7.382;2023-04-09T08:39:05;97869.16;;;10.20;98.51
21817;BME280;13247;47.504;7.382;2023-04-09T08:41:51;97861.50;;;10.11;98.48
21817;BME280;13247;47.504;7.382;2023-04-09T08:44:36;97868.44;;;10.52;96.23
21817;BME280;13247;47.504;7.382;2023-04-09T08:47:21;97870.69;;;10.31;93.93
21817;BME280;13247;47.504;7.382;2023-04-09T08:50:06;97867.66;;;10.49;90.60
21817;BME280;13247;47.504;7.382;2023-04-09T08:52:51;97861.06;;;10.69;88.71
21817;BME280;13247;47.504;7.382;2023-04-09T08:55:36;97876.44;;;10.46;90.67
21817;BME280;13247;47.504;7.382;2023-04-09T08:58:21;97865.81;;;10.52;90.14
21817;BME280;13247;47.504;7.382;2023-04-09T09:04:08;97873.63;;;10.55;90.98
21817;BME280;13247;47.504;7.382;2023-04-09T09:06:53;97868.47;;;10.89;92.06
21817;BME280;13247;47.504;7.382;2023-04-09T09:10:13;97861.19;;;11.00;88.29
21817;BME280;13247;47.504;7.382;2023-04-09T09:12:58;97861.31;;;10.95;88.24
21817;BME280;13247;47.504;7.382;2023-04-09T09:15:43;97862.31;;;11.25;89.80
21817;BME280;13247;47.504;7.382;2023-04-09T09:18:38;97859.69;;;11.25;84.03
21817;BME280;13247;47.504;7.382;2023-04-09T09:21:26;97858.47;;;11.38;89.39
21817;BME280;13247;47.504;7.382;2023-04-09T09:24:17;97852.78;;;11.53;91.62
21817;BME280;13247;47.504;7.382;2023-04-09T09:27:02;97853.31;;;11.67;88.21
21817;BME280;13247;47.504;7.382;2023-04-09T09:29:48;97852.19;;;11.44;85.77
21817;BME280;13247;47.504;7.382;2023-04-09T09:32:33;97849.44;;;11.48;81.09
21817;BME280;13247;47.504;7.382;2023-04-09T09:35:18;97853.03;;;11.78;84.12
21817;BME280;13247;47.504;7.382;2023-04-09T09:38:03;97842.13;;;12.21;76.45
21817;BME280;13247;47.504;7.382;2023-04-09T09:40:49;97844.22;;;12.10;81.55
21817;BME280;13247;47.504;7.382;2023-04-09T09:43:40;97837.97;;;12.14;78.58
21817;BME280;13247;47.504;7.382;2023-04-09T09:46:27;97839.84;;;11.79;78.34
21817;BME280;13247;47.504;7.382;2023-04-09T09:49:14;97840.28;;;11.95;72.38
21817;BME280;13247;47.504;7.382;2023-04-09T09:52:00;97842.22;;;12.18;72.75
21817;BME280;13247;47.504;7.382;2023-04-09T09:54:49;97835.03;;;12.24;70.58
21817;BME280;13247;47.504;7.382;2023-04-09T09:57:38;97828.06;;;12.51;70.62
21817;BME280;13247;47.504;7.382;2023-04-09T10:00:27;97837.53;;;12.27;70.00
21817;BME280;13247;47.504;7.382;2023-04-09T10:03:26;97834.69;;;12.35;71.34
21817;BME280;13247;47.504;7.382;2023-04-09T10:06:12;97835.75;;;12.57;68.74
21817;BME280;13247;47.504;7.382;2023-04-09T10:08:57;97827.81;;;12.31;68.50
21817;BME280;13247;47.504;7.382;2023-04-09T10:11:44;97824.19;;;12.89;68.41
21817;BME280;13247;47.504;7.382;2023-04-09T10:14:31;97829.75;;;13.33;65.07
21817;BME280;13247;47.504;7.382;2023-04-09T10:17:17;97825.69;;;13.23;63.34
21817;BME280;13247;47.504;7.382;2023-04-09T10:20:17;97816.69;;;13.04;64.44
21817;BME280;13247;47.504;7.382;2023-04-09T10:23:08;97819.06;;;13.12;63.26
21817;BME280;13247;47.504;7.382;2023-04-09T10:25:55;97818.44;;;13.04;65.70
21817;BME280;13247;47.504;7.382;2023-04-09T10:28:40;97816.97;;;12.95;61.36
21817;BME280;13247;47.504;7.382;2023-04-09T10:31:25;97811.56;;;13.00;62.62
21817;BME280;13247;47.504;7.382;2023-04-09T10:34:10;97817.22;;;13.15;58.46
21817;BME280;13247;47.504;7.382;2023-04-09T10:36:58;97807.91;;;13.30;58.35
21817;BME280;13247;47.504;7.382;2023-04-09T10:39:46;97811.16;;;13.12;61.12
21817;BME280;13247;47.504;7.382;2023-04-09T10:42:35;97811.78;;;13.45;62.19
21817;BME280;13247;47.504;7.382;2023-04-09T10:45:20;97806.31;;;13.26;63.64
21817;BME280;13247;47.504;7.382;2023-04-09T10:48:04;97815.75;;;13.31;58.04
21817;BME280;13247;47.504;7.382;2023-04-09T10:50:50;97807.25;;;13.48;61.48
21817;BME280;13247;47.504;7.382;2023-04-09T10:53:38;97801.91;;;13.51;58.53
21817;BME280;13247;47.504;7.382;2023-04-09T10:56:22;97811.59;;;13.74;58.62
21817;BME280;13247;47.504;7.382;2023-04-09T10:59:07;97808.09;;;13.98;56.78
21817;BME280;13247;47.504;7.382;2023-04-09T11:01:52;97801.09;;;13.97;57.82
21817;BME280;13247;47.504;7.382;2023-04-09T11:07:34;97805.88;;;13.38;56.82
21817;BME280;13247;47.504;7.382;2023-04-09T11:10:20;97802.41;;;14.08;54.97
21817;BME280;13247;47.504;7.382;2023-04-09T11:13:05;97805.66;;;14.15;55.27
21817;BME280;13247;47.504;7.382;2023-04-09T11:15:50;97807.03;;;14.25;53.13
21817;BME280;13247;47.504;7.382;2023-04-09T11:18:35;97802.00;;;13.96;52.20
21817;BME280;13247;47.504;7.382;2023-04-09T11:21:20;97795.09;;;14.15;54.76
21817;BME280;13247;47.504;7.382;2023-04-09T11:24:14;97794.09;;;14.19;52.91
21817;BME280;13247;47.504;7.382;2023-04-09T11:27:02;97793.72;;;14.51;50.93
21817;BME280;13247;47.504;7.382;2023-04-09T11:29:46;97791.13;;;14.50;53.83
21817;BME280;13247;47.504;7.382;2023-04-09T11:32:31;97785.53;;;14.79;49.23
21817;BME280;13247;47.504;7.382;2023-04-09T11:35:18;97774.44;;;14.71;47.75
21817;BME280;13247;47.504;7.382;2023-04-09T11:38:10;97779.75;;;14.91;46.89
21817;BME280;13247;47.504;7.382;2023-04-09T11:40:57;97779.03;;;14.87;48.52
21817;BME280;13247;47.504;7.382;2023-04-09T11:43:41;97780.06;;;15.05;49.62
21817;BME280;13247;47.504;7.382;2023-04-09T11:46:26;97785.19;;;15.08;46.63
21817;BME280;13247;47.504;7.382;2023-04-09T11:49:11;97775.03;;;14.99;47.60
21817;BME280;13247;47.504;7.382;2023-04-09T11:51:57;97764.13;;;14.86;46.77
21817;BME280;13247;47.504;7.382;2023-04-09T11:54:48;97777.00;;;14.94;48.12
21817;BME280;13247;47.504;7.382;2023-04-09T11:57:44;97774.72;;;15.27;47.44
21817;BME280;13247;47.504;7.382;2023-04-09T12:00:32;97780.66;;;15.32;49.17
21817;BME280;13247;47.504;7.382;2023-04-09T12:03:16;97779.41;;;15.40;46.65
21817;BME280;13247;47.504;7.382;2023-04-09T12:06:02;97782.03;;;14.78;49.72
21817;BME280;13247;47.504;7.382;2023-04-09T12:08:51;97771.03;;;15.71;48.47
21817;BME280;13247;47.504;7.382;2023-04-09T12:11:36;97761.59;;;15.45;47.35
21817;BME280;13247;47.504;7.382;2023-04-09T12:14:21;97762.09;;;15.33;46.96
21817;BME280;13247;47.504;7.382;2023-04-09T12:17:07;97758.00;;;15.66;48.58
21817;BME280;13247;47.504;7.382;2023-04-09T12:19:53;97755.97;;;15.53;48.68
21817;BME280;13247;47.504;7.382;2023-04-09T12:22:38;97751.47;;;15.75;48.07
21817;BME280;13247;47.504;7.382;2023-04-09T12:25:24;97751.59;;;15.12;47.87
21817;BME280;13247;47.504;7.382;2023-04-09T12:28:12;97745.16;;;15.78;47.00
21817;BME280;13247;47.504;7.382;2023-04-09T12:30:58;97750.59;;;15.34;49.32
21817;BME280;13247;47.504;7.382;2023-04-09T12:33:43;97749.63;;;15.37;49.15
21817;BME280;13247;47.504;7.382;2023-04-09T12:36:28;97738.91;;;15.40;47.61
21817;BME280;13247;47.504;7.382;2023-04-09T12:39:13;97742.53;;;15.96;47.67
21817;BME280;13247;47.504;7.382;2023-04-09T12:41:58;97730.34;;;16.48;45.28
21817;BME280;13247;47.504;7.382;2023-04-09T12:44:42;97726.34;;;16.39;47.57
21817;BME280;13247;47.504;7.382;2023-04-09T12:47:27;97730.25;;;16.51;47.61
21817;BME280;13247;47.504;7.382;2023-04-09T12:50:13;97732.72;;;16.35;45.10
21817;BME280;13247;47.504;7.382;2023-04-09T12:52:58;97738.22;;;16.68;46.09
21817;BME280;13247;47.504;7.382;2023-04-09T12:55:42;97726.44;;;16.74;44.31
21817;BME280;13247;47.504;7.382;2023-04-09T12:58:27;97741.38;;;16.02;45.73
21817;BME280;13247;47.504;7.382;2023-04-09T13:01:12;97736.91;;;15.65;46.65
21817;BME280;13247;47.504;7.382;2023-04-09T13:03:56;97740.31;;;15.48;46.18
21817;BME280;13247;47.504;7.382;2023-04-09T13:06:41;97735.53;;;15.36;47.22
21817;BME280;13247;47.504;7.382;2023-04-09T13:09:26;97739.91;;;15.17;47.51
21817;BME280;13247;47.504;7.382;2023-04-09T13:12:11;97730.38;;;16.29;51.99
21817;BME280;13247;47.504;7.382;2023-04-09T13:14:56;97727.28;;;15.83;47.61
21817;BME280;13247;47.504;7.382;2023-04-09T13:17:41;97725.09;;;15.92;44.98
21817;BME280;13247;47.504;7.382;2023-04-09T13:20:26;97719.81;;;16.65;44.56
21817;BME280;13247;47.504;7.382;2023-04-09T13:23:11;97717.44;;;16.95;43.63
21817;BME280;13247;47.504;7.382;2023-04-09T13:25:55;97718.09;;;16.45;44.88
21817;BME280;13247;47.504;7.382;2023-04-09T13:28:40;97713.34;;;16.71;44.74
21817;BME280;13247;47.504;7.382;2023-04-09T13:31:25;97716.53;;;16.41;44.78
21817;BME280;13247;47.504;7.382;2023-04-09T13:34:09;97708.78;;;16.74;42.46
21817;BME280;13247;47.504;7.382;2023-04-09T13:36:54;97704.25;;;16.40;43.11
21817;BME280;13247;47.504;7.382;2023-04-09T13:39:38;97698.31;;;15.61;45.39
21817;BME280;13247;47.504;7.382;2023-04-09T13:42:23;97700.41;;;16.65;45.30
21817;BME280;13247;47.504;7.382;2023-04-09T13:45:08;97694.69;;;17.08;44.46
21817;BME280;13247;47.504;7.382;2023-04-09T13:47:53;97689.28;;;16.75;43.86
21817;BME280;13247;47.504;7.382;2023-04-09T13:50:37;97692.28;;;17.36;42.71
21817;BME280;13247;47.504;7.382;2023-04-09T13:53:22;97678.66;;;17.44;41.82
21817;BME280;13247;47.504;7.382;2023-04-09T13:56:08;97680.31;;;17.29;42.56
21817;BME280;13247;47.504;7.382;2023-04-09T13:58:53;97674.34;;;17.41;43.86
21817;BME280;13247;47.504;7.382;2023-04-09T14:01:38;97668.13;;;17.75;41.41
21817;BME280;13247;47.504;7.382;2023-04-09T14:04:23;97672.38;;;17.12;42.39
21817;BME280;13247;47.504;7.382;2023-04-09T14:07:07;97666.59;;;17.71;39.97
21817;BME280;13247;47.504;7.382;2023-04-09T14:09:52;97665.22;;;17.47;41.66
21817;BME280;13247;47.504;7.382;2023-04-09T14:12:36;97669.03;;;16.57;43.37
21817;BME280;13247;47.504;7.382;2023-04-09T14:15:21;97664.81;;;16.17;43.88
21817;BME280;13247;47.504;7.382;2023-04-09T14:18:06;97672.97;;;17.17;46.49
21817;BME280;13247;47.504;7.382;2023-04-09T14:20:50;97665.00;;;17.51;42.58
21817;BME280;13247;47.504;7.382;2023-04-09T14:23:35;97673.34;;;17.44;41.80
21817;BME280;13247;47.504;7.382;2023-04-09T14:26:19;97674.72;;;16.67;43.55
21817;BME280;13247;47.504;7.382;2023-04-09T14:29:04;97674.47;;;16.54;42.78
21817;BME280;13247;47.504;7.382;2023-04-09T14:31:48;97677.56;;;16.26;43.31
21817;BME280;13247;47.504;7.382;2023-04-09T14:34:34;97663.03;;;15.99;43.02
21817;BME280;13247;47.504;7.382;2023-04-09T14:37:20;97663.47;;;16.09;45.32
21817;BME280;13247;47.504;7.382;2023-04-09T14:40:06;97656.25;;;17.16;43.31
21817;BME280;13247;47.504;7.382;2023-04-09T14:42:50;97662.25;;;15.97;43.08
21817;BME280;13247;47.504;7.382;2023-04-09T14:45:35;97659.56;;;16.34;43.08
21817;BME280;13247;47.504;7.382;2023-04-09T14:48:20;97650.19;;;16.27;42.75
21817;BME280;13247;47.504;7.382;2023-04-09T14:51:05;97660.78;;;16.27;43.85